Time;durP1;ratioP1;P1;durP2;ratioP2;P2;SDS_P1;SDS_P2;PMS_P1;PMS_P2;Temp;Humidity;BMP_temperature;BMP_pressure;BME280_temperature;BME280_humidity;BME280_pressure;Samples;Min_cycle;Max_cycle;Signal;HPM_P1;HPM_P2
2022/07/26 00:02:02;;;;;;;;;;;;;;;28.52;41.13;100439.78;5068955;28;988;-44
2022/07/26 00:04:27;;;;;;;;;;;;;;;28.52;41.26;100439.78;5072442;28;1025;-43
2022/07/26 00:06:52;;;;;;;;;;;;;;;28.52;41.30;100440.63;5069329;28;1167;-45
2022/07/26 00:09:18;;;;;;;;;;;;;;;28.56;41.12;100436.47;5073850;28;1152;-44
2022/07/26 00:11:43;;;;;;;;;;;;;;;28.54;41.14;100438.56;5051582;28;1245;-44
2022/07/26 00:14:09;;;;;;;;;;;;;;;28.52;40.90;100435.22;5074908;28;1067;-44
2022/07/26 00:16:34;;;;;;;;;;;;;;;28.51;41.11;100441.63;5074631;28;1996;-44
2022/07/26 00:19:00;;;;;;;;;;;;;;;28.50;41.08;100431.88;5076293;28;985;-44
2022/07/26 00:21:25;;;;;;;;;;;;;;;28.51;41.36;100430.81;5068743;28;2678;-46
2022/07/26 00:23:50;;;;;;;;;;;;;;;28.50;40.45;100431.88;5068419;28;1175;-44
2022/07/26 00:26:15;;;;;;;;;;;;;;;28.56;41.06;100431.06;5075677;28;981;-44
2022/07/26 00:28:41;;;;;;;;;;;;;;;28.47;41.52;100434.97;5076675;28;1162;-43
2022/07/26 00:31:06;;;;;;;;;;;;;;;28.45;41.28;100432.47;5057785;28;1090;-45
2022/07/26 00:33:32;;;;;;;;;;;;;;;28.46;41.38;100426.00;5069825;28;992;-44
2022/07/26 00:35:57;;;;;;;;;;;;;;;28.46;41.65;100427.91;5069965;28;1973;-44
2022/07/26 00:38:23;;;;;;;;;;;;;;;28.44;41.28;100424.56;5069522;28;1064;-43
2022/07/26 00:40:48;;;;;;;;;;;;;;;28.51;41.36;100428.13;5071220;28;1135;-44
2022/07/26 00:43:13;;;;;;;;;;;;;;;28.43;41.56;100426.41;5071218;28;1048;-45
2022/07/26 00:45:39;;;;;;;;;;;;;;;28.45;41.54;100420.81;5074183;28;1087;-44
2022/07/26 00:48:04;;;;;;;;;;;;;;;28.46;41.66;100425.19;5070433;28;1151;-45
2022/07/26 00:50:30;;;;;;;;;;;;;;;28.48;41.47;100428.50;5063194;28;1953;-43
2022/07/26 00:52:55;;;;;;;;;;;;;;;28.42;41.22;100422.06;5073334;28;1116;-44
2022/07/26 00:55:20;;;;;;;;;;;;;;;28.47;41.28;100421.44;5047871;28;1977;-45
2022/07/26 00:57:46;;;;;;;;;;;;;;;28.44;41.60;100414.56;5069488;28;1012;-45
2022/07/26 01:00:12;;;;;;;;;;;;;;;28.38;41.39;100409.94;5069626;28;1107;-43
2022/07/26 01:02:37;;;;;;;;;;;;;;;28.44;41.37;100419.16;5064847;28;1052;-43
2022/07/26 01:05:03;;;;;;;;;;;;;;;28.42;41.35;100419.34;5069654;28;1159;-43
2022/07/26 01:07:28;;;;;;;;;;;;;;;28.45;41.53;100412.69;5073839;28;1036;-44
2022/07/26 01:09:53;;;;;;;;;;;;;;;28.46;41.50;100412.47;5062367;28;1162;-44
2022/07/26 01:12:19;;;;;;;;;;;;;;;28.48;41.34;100412.28;5049861;28;1048;-45
2022/07/26 01:14:44;;;;;;;;;;;;;;;28.46;41.83;100406.25;5075513;28;1433;-43
2022/07/26 01:17:10;;;;;;;;;;;;;;;27.81;41.59;100308.09;5076115;28;1902;-45
2022/07/26 01:19:35;;;;;;;;;;;;;;;28.39;41.04;100400.81;5067937;28;1029;-44
2022/07/26 01:22:00;;;;;;;;;;;;;;;28.40;41.38;100405.19;5069439;28;2590;-44
2022/07/26 01:24:26;;;;;;;;;;;;;;;28.41;41.10;100403.31;5073913;28;934;-43
2022/07/26 01:26:51;;;;;;;;;;;;;;;28.47;41.46;100410.63;5075490;28;1008;-43
2022/07/26 01:29:16;;;;;;;;;;;;;;;28.48;41.36;100409.56;5065153;28;945;-45
2022/07/26 01:31:42;;;;;;;;;;;;;;;28.48;41.26;100398.75;5050825;28;1084;-43
2022/07/26 01:34:07;;;;;;;;;;;;;;;28.46;41.44;100398.97;5070833;28;1122;-46
2022/07/26 01:36:32;;;;;;;;;;;;;;;28.40;41.68;100397.06;5062750;28;1882;-43
2022/07/26 01:38:57;;;;;;;;;;;;;;;28.48;40.99;100394.19;5061535;28;1037;-48
2022/07/26 01:41:23;;;;;;;;;;;;;;;28.43;41.53;100391.25;5070940;28;1018;-45
2022/07/26 01:43:48;;;;;;;;;;;;;;;28.44;41.49;100398.34;5074437;28;1071;-44
2022/07/26 01:46:13;;;;;;;;;;;;;;;28.44;41.71;100403.75;5073968;28;1242;-44
2022/07/26 01:48:39;;;;;;;;;;;;;;;28.41;41.78;100398.72;5070349;28;1063;-45
2022/07/26 01:51:04;;;;;;;;;;;;;;;28.53;41.04;100395.47;5057895;28;2330;-44
2022/07/26 01:53:30;;;;;;;;;;;;;;;28.44;41.48;100401.06;5066286;28;985;-44
2022/07/26 01:55:55;;;;;;;;;;;;;;;28.47;41.39;100400.66;5073659;28;1971;-44
2022/07/26 01:58:20;;;;;;;;;;;;;;;28.42;41.15;100394.16;5071210;28;1124;-43
2022/07/26 02:00:45;;;;;;;;;;;;;;;28.42;41.49;100394.16;5069376;28;1009;-44
2022/07/26 02:03:11;;;;;;;;;;;;;;;28.44;41.25;100401.06;5074305;28;1136;-44
2022/07/26 02:05:36;;;;;;;;;;;;;;;28.47;41.21;100405.22;5077409;28;1028;-43
2022/07/26 02:08:01;;;;;;;;;;;;;;;28.38;41.51;100398.31;5076746;28;1178;-43
2022/07/26 02:13:11;;;;;;;;;;;;;;;28.36;41.39;100402.03;5060648;28;937;-45
2022/07/26 02:15:37;;;;;;;;;;;;;;;28.41;41.36;100406.03;5061621;28;1969;-43
2022/07/26 02:18:02;;;;;;;;;;;;;;;28.52;41.21;100401.91;5071509;28;1012;-43
2022/07/26 02:20:27;;;;;;;;;;;;;;;28.40;41.59;100401.63;5068982;28;2423;-43
2022/07/26 02:22:53;;;;;;;;;;;;;;;28.41;41.29;100389.78;5072209;28;985;-42
2022/07/26 02:25:18;;;;;;;;;;;;;;;28.41;41.74;100384.38;5071256;28;1024;-43
2022/07/26 02:27:43;;;;;;;;;;;;;;;28.45;41.41;100382.94;5067784;28;1088;-43
2022/07/26 02:30:09;;;;;;;;;;;;;;;28.42;41.62;100384.19;5074344;28;985;-43
2022/07/26 02:32:34;;;;;;;;;;;;;;;28.46;41.06;100387.31;5071845;28;1131;-42
2022/07/26 02:34:59;;;;;;;;;;;;;;;28.42;41.59;100386.03;5072678;28;1001;-43
2022/07/26 02:37:25;;;;;;;;;;;;;;;28.46;41.39;100381.91;5066305;28;1037;-44
2022/07/26 02:39:50;;;;;;;;;;;;;;;28.42;40.57;100391.44;5076921;28;1079;-44
2022/07/26 02:42:15;;;;;;;;;;;;;;;28.44;41.52;100383.97;5078079;28;993;-44
2022/07/26 02:44:41;;;;;;;;;;;;;;;28.44;41.60;100382.13;5073331;28;1135;-43
2022/07/26 02:47:06;;;;;;;;;;;;;;;28.41;41.48;100390.59;5064301;28;974;-45
2022/07/26 02:49:31;;;;;;;;;;;;;;;28.40;41.60;100391.66;5069037;28;990;-45
2022/07/26 02:51:56;;;;;;;;;;;;;;;28.43;41.31;100388.53;5063326;28;2644;-45
2022/07/26 02:54:22;;;;;;;;;;;;;;;28.38;40.74;100385.59;5073344;28;1158;-42
2022/07/26 02:56:47;;;;;;;;;;;;;;;28.34;41.06;100390.56;5072278;28;1967;-42
2022/07/26 02:59:12;;;;;;;;;;;;;;;28.38;40.92;100395.59;5075901;28;1052;-42
2022/07/26 03:01:38;;;;;;;;;;;;;;;28.39;41.31;100391.84;5072932;28;1146;-42
2022/07/26 03:04:04;;;;;;;;;;;;;;;28.41;41.51;100385.19;5069203;28;1048;-42
2022/07/26 03:06:29;;;;;;;;;;;;;;;28.47;41.11;100383.56;5072941;28;1111;-43
2022/07/26 03:08:54;;;;;;;;;;;;;;;28.44;40.96;100387.53;5071819;28;1020;-42
2022/07/26 03:11:20;;;;;;;;;;;;;;;28.43;41.23;100387.69;5071840;28;1203;-43
2022/07/26 03:13:45;;;;;;;;;;;;;;;28.51;41.52;100392.94;5064498;28;916;-41
2022/07/26 03:16:10;;;;;;;;;;;;;;;28.42;41.23;100386.03;5072921;28;1961;-44
2022/07/26 03:18:35;;;;;;;;;;;;;;;28.41;41.35;100387.09;5070124;28;1183;-43
2022/07/26 03:21:01;;;;;;;;;;;;;;;28.43;41.53;100396.66;5068979;28;1968;-41
2022/07/26 03:23:26;;;;;;;;;;;;;;;28.55;40.93;100396.94;5064741;28;1032;-43
2022/07/26 03:25:52;;;;;;;;;;;;;;;28.52;41.03;100396.50;5067657;28;1202;-44
2022/07/26 03:28:17;;;;;;;;;;;;;;;28.51;40.95;100394.81;5074422;28;1100;-44
2022/07/26 03:30:43;;;;;;;;;;;;;;;28.51;41.11;100401.06;5074906;28;1135;-44
2022/07/26 03:33:08;;;;;;;;;;;;;;;28.50;40.95;100401.25;5068198;28;1033;-46
2022/07/26 03:35:33;;;;;;;;;;;;;;;28.48;41.06;100402.31;5070194;28;1894;-45
2022/07/26 03:37:58;;;;;;;;;;;;;;;28.42;41.26;100396.84;5070238;28;1199;-48
2022/07/26 03:40:24;;;;;;;;;;;;;;;27.98;41.99;100399.69;5070915;28;1024;-44
2022/07/26 03:42:50;;;;;;;;;;;;;;;27.54;43.25;100402.47;5068865;28;1028;-44
2022/07/26 03:45:15;;;;;;;;;;;;;;;27.43;43.74;100400.25;5071183;28;985;-44
2022/07/26 03:47:40;;;;;;;;;;;;;;;27.78;42.81;100394.16;5062658;28;1095;-43
2022/07/26 03:50:06;;;;;;;;;;;;;;;27.51;39.15;100398.28;5063978;28;2456;-44
2022/07/26 03:52:31;;;;;;;;;;;;;;;26.89;37.90;100400.53;5068497;28;1000;-45
2022/07/26 03:54:57;;;;;;;;;;;;;;;26.77;41.01;100406.44;5072889;28;1182;-42
2022/07/26 03:57:22;;;;;;;;;;;;;;;26.76;40.78;100398.50;5073111;28;1964;-43
2022/07/26 03:59:47;;;;;;;;;;;;;;;26.32;46.38;100400.19;5075046;28;1009;-44
2022/07/26 04:02:12;;;;;;;;;;;;;;;25.04;43.66;100392.50;5057534;28;858;-37
2022/07/26 04:04:38;;;;;;;;;;;;;;;21.50;42.63;100388.69;5067401;28;962;-39
2022/07/26 04:07:03;;;;;;;;;;;;;;;19.64;44.50;100376.84;5064071;28;1028;-41
2022/07/26 04:09:28;;;;;;;;;;;;;;;18.95;46.51;100374.94;5070657;28;1258;-40
2022/07/26 04:11:54;;;;;;;;;;;;;;;18.68;48.55;100379.09;5052806;28;1171;-39
2022/07/26 04:14:20;;;;;;;;;;;;;;;18.59;49.28;100372.75;5070396;28;846;-39
2022/07/26 04:16:45;;;;;;;;;;;;;;;18.25;50.36;100374.84;5069273;28;1991;-38
2022/07/26 04:19:10;;;;;;;;;;;;;;;18.72;52.12;100377.84;5071274;28;1070;-40
2022/07/26 04:21:36;;;;;;;;;;;;;;;21.94;47.11;100376.34;5069446;28;2376;-40
2022/07/26 04:24:01;;;;;;;;;;;;;;;23.87;44.01;100377.75;5070294;28;1119;-37
2022/07/26 04:26:28;;;;;;;;;;;;;;;24.68;39.59;100388.47;5069344;28;1087;-38
2022/07/26 04:28:53;;;;;;;;;;;;;;;24.99;38.93;100384.13;5065039;28;1049;-37
2022/07/26 04:31:19;;;;;;;;;;;;;;;25.21;40.52;100378.94;5069498;28;1087;-38
2022/07/26 04:33:44;;;;;;;;;;;;;;;25.62;42.49;100382.34;5068841;28;1016;-38
2022/07/26 04:36:09;;;;;;;;;;;;;;;25.38;41.50;100389.59;5070207;28;1961;-38
2022/07/26 04:38:34;;;;;;;;;;;;;;;25.40;41.02;100385.72;5064037;28;1409;-39
2022/07/26 04:41:00;;;;;;;;;;;;;;;24.78;45.07;100393.63;5063434;28;1068;-41
2022/07/26 04:43:25;;;;;;;;;;;;;;;22.90;49.22;100388.91;5073976;28;1087;-38
2022/07/26 04:45:50;;;;;;;;;;;;;;;21.85;50.08;100391.53;5073636;28;1135;-38
2022/07/26 04:48:16;;;;;;;;;;;;;;;21.85;53.47;100393.38;5073376;28;1029;-39
2022/07/26 04:50:41;;;;;;;;;;;;;;;22.83;53.39;100388.72;5068705;28;1917;-39
2022/07/26 04:53:09;;;;;;;;;;;;;;;24.46;46.48;100396.28;5066142;28;962;-39
2022/07/26 04:55:34;;;;;;;;;;;;;;;25.13;45.87;100395.16;5070280;28;1943;-39
2022/07/26 04:58:00;;;;;;;;;;;;;;;25.73;47.11;100398.09;5067078;28;1079;-38
2022/07/26 05:00:25;;;;;;;;;;;;;;;25.50;44.64;100395.38;5071781;28;1093;-40
2022/07/26 05:02:51;;;;;;;;;;;;;;;23.28;49.26;100390.31;5066214;28;1219;-39
2022/07/26 05:05:17;;;;;;;;;;;;;;;22.54;52.63;100397.13;5068827;28;985;-39
2022/07/26 05:07:43;;;;;;;;;;;;;;;22.26;54.11;100396.31;5068926;28;1171;-39
2022/07/26 05:10:08;;;;;;;;;;;;;;;22.46;55.62;100388.03;5074964;28;1092;-42
2022/07/26 05:12:33;;;;;;;;;;;;;;;24.29;48.70;100389.31;5055718;28;1318;-40
2022/07/26 05:14:59;;;;;;;;;;;;;;;25.50;48.48;100393.53;5064575;28;1097;-39
2022/07/26 05:17:24;;;;;;;;;;;;;;;25.56;44.42;100391.97;5071973;28;1913;-41
2022/07/26 05:19:49;;;;;;;;;;;;;;;25.21;42.84;100396.97;5067742;28;2540;-40
2022/07/26 05:22:15;;;;;;;;;;;;;;;24.36;45.67;100390.28;5071233;28;1028;-40
2022/07/26 05:24:40;;;;;;;;;;;;;;;23.81;47.88;100382.81;5071079;28;958;-40
2022/07/26 05:27:05;;;;;;;;;;;;;;;24.89;44.72;100392.38;5063554;28;989;-40
2022/07/26 05:29:31;;;;;;;;;;;;;;;25.64;42.63;100383.03;5071919;28;1083;-40
2022/07/26 05:31:56;;;;;;;;;;;;;;;26.02;46.11;100385.69;5070356;28;1419;-40
2022/07/26 05:34:23;;;;;;;;;;;;;;;24.51;46.95;100378.78;5065662;28;993;-40
2022/07/26 05:36:49;;;;;;;;;;;;;;;22.89;51.40;100383.72;5074485;28;1980;-40
2022/07/26 05:39:14;;;;;;;;;;;;;;;24.51;48.27;100387.69;5068689;28;877;-39
2022/07/26 05:41:39;;;;;;;;;;;;;;;25.52;45.59;100386.13;5068601;28;973;-39
2022/07/26 05:44:05;;;;;;;;;;;;;;;23.99;49.03;100384.44;5073032;28;989;-39
2022/07/26 05:46:30;;;;;;;;;;;;;;;22.81;51.53;100384.50;5070149;28;982;-40
2022/07/26 05:48:55;;;;;;;;;;;;;;;22.33;52.40;100383.13;5069325;28;989;-38
2022/07/26 05:51:21;;;;;;;;;;;;;;;22.14;52.89;100382.34;5071140;28;2060;-40
2022/07/26 05:53:46;;;;;;;;;;;;;;;22.06;52.42;100378.75;5064934;28;1299;-38
2022/07/26 05:56:11;;;;;;;;;;;;;;;23.95;49.21;100383.13;5065843;28;1889;-39
2022/07/26 05:58:36;;;;;;;;;;;;;;;23.92;48.87;100378.91;5072987;28;1066;-39
2022/07/26 06:01:02;;;;;;;;;;;;;;;22.35;51.65;100381.13;5073723;28;1377;-39
2022/07/26 06:03:28;;;;;;;;;;;;;;;24.11;47.63;100379.56;5062216;28;948;-36
2022/07/26 06:05:55;;;;;;;;;;;;;;;25.66;43.98;100379.13;5065134;28;1210;-40
2022/07/26 06:08:21;;;;;;;;;;;;;;;26.45;42.45;100381.53;5068866;28;1081;-39
2022/07/26 06:10:46;;;;;;;;;;;;;;;26.91;41.21;100379.56;5065571;28;1124;-38
2022/07/26 06:13:12;;;;;;;;;;;;;;;27.15;41.08;100380.28;5072771;28;1019;-39
2022/07/26 06:15:37;;;;;;;;;;;;;;;27.14;40.44;100384.00;5061981;28;1953;-37
2022/07/26 06:18:05;;;;;;;;;;;;;;;27.12;39.76;100378.81;5073420;28;1059;-39
2022/07/26 06:20:31;;;;;;;;;;;;;;;27.30;39.55;100376.66;5062809;28;1203;-41
2022/07/26 06:22:59;;;;;;;;;;;;;;;27.33;39.04;100373.56;5072230;28;1111;-39
2022/07/26 06:25:25;;;;;;;;;;;;;;;27.36;39.76;100370.50;5072681;28;1017;-40
2022/07/26 06:27:50;;;;;;;;;;;;;;;27.53;39.63;100362.94;5067143;28;986;-39
2022/07/26 06:30:15;;;;;;;;;;;;;;;27.63;39.53;100363.47;5069842;28;1075;-41
2022/07/26 06:32:43;;;;;;;;;;;;;;;27.41;40.07;100353.72;5068924;28;965;-41
2022/07/26 06:35:09;;;;;;;;;;;;;;;27.43;39.82;100370.53;5070664;28;1648;-40
2022/07/26 06:37:38;;;;;;;;;;;;;;;27.39;40.00;100375.53;5073263;28;1269;-41
2022/07/26 06:40:04;;;;;;;;;;;;;;;27.34;40.13;100367.16;5073612;28;1254;-37
2022/07/26 06:42:29;;;;;;;;;;;;;;;27.39;40.14;100370.13;5069276;28;1227;-39
2022/07/26 06:44:54;;;;;;;;;;;;;;;27.41;40.20;100369.94;5072241;28;1052;-39
2022/07/26 06:47:20;;;;;;;;;;;;;;;27.38;40.08;100365.72;5072791;28;972;-39
2022/07/26 06:49:45;;;;;;;;;;;;;;;27.42;40.24;100361.63;5069481;28;1187;-39
2022/07/26 06:52:10;;;;;;;;;;;;;;;27.50;39.35;100363.34;5070803;28;1219;-40
2022/07/26 06:54:35;;;;;;;;;;;;;;;27.49;39.53;100364.38;5075676;28;1068;-39
2022/07/26 06:57:01;;;;;;;;;;;;;;;27.50;39.43;100364.19;5074922;28;1927;-41
2022/07/26 06:59:26;;;;;;;;;;;;;;;27.57;38.96;100368.81;5076670;28;1056;-37
2022/07/26 07:01:51;;;;;;;;;;;;;;;27.58;39.24;100365.06;5076908;28;1155;-39
2022/07/26 07:04:17;;;;;;;;;;;;;;;27.73;39.25;100365.84;5069011;28;944;-39
2022/07/26 07:06:42;;;;;;;;;;;;;;;27.65;39.04;100365.97;5072026;28;965;-38
2022/07/26 07:09:07;;;;;;;;;;;;;;;27.64;39.67;100367.00;5067061;28;1119;-39
2022/07/26 07:11:33;;;;;;;;;;;;;;;27.74;38.80;100364.00;5073288;28;1043;-40
2022/07/26 07:13:58;;;;;;;;;;;;;;;27.78;38.84;100367.13;5070416;28;1059;-38
2022/07/26 07:16:23;;;;;;;;;;;;;;;27.67;38.95;100363.91;5070682;28;1910;-39
2022/07/26 07:18:50;;;;;;;;;;;;;;;27.75;39.20;100362.94;5075508;28;989;-39
2022/07/26 07:21:15;;;;;;;;;;;;;;;27.76;39.76;100372.72;5064628;28;997;-38
2022/07/26 07:23:40;;;;;;;;;;;;;;;27.87;39.15;100365.94;5075403;28;973;-38
2022/07/26 07:26:06;;;;;;;;;;;;;;;27.87;39.29;100363.25;5067877;28;1291;-39
2022/07/26 07:28:32;;;;;;;;;;;;;;;27.94;39.27;100360.59;5074232;28;962;-38
2022/07/26 07:30:58;;;;;;;;;;;;;;;27.88;39.21;100367.59;5076750;28;988;-39
2022/07/26 07:33:23;;;;;;;;;;;;;;;27.86;39.14;100372.41;5072706;28;1103;-40
2022/07/26 07:35:49;;;;;;;;;;;;;;;27.93;38.55;100367.00;5057793;28;1898;-38
2022/07/26 07:38:14;;;;;;;;;;;;;;;28.11;38.84;100364.63;5064673;28;1019;-38
2022/07/26 07:40:39;;;;;;;;;;;;;;;28.15;38.39;100365.06;5069985;28;1673;-38
2022/07/26 07:43:05;;;;;;;;;;;;;;;28.13;38.03;100361.72;5071393;28;1060;-38
2022/07/26 07:45:30;;;;;;;;;;;;;;;28.08;38.27;100364.19;5070056;28;843;-37
2022/07/26 07:47:55;;;;;;;;;;;;;;;28.05;38.56;100365.44;5068876;28;995;-37
2022/07/26 07:50:21;;;;;;;;;;;;;;;28.16;37.80;100368.63;5070562;28;1139;-37
2022/07/26 07:52:46;;;;;;;;;;;;;;;28.33;37.46;100359.16;5063284;28;1174;-37
2022/07/26 07:55:11;;;;;;;;;;;;;;;28.46;36.83;100358.38;5074147;28;1544;-39
2022/07/26 07:57:37;;;;;;;;;;;;;;;28.38;36.16;100363.97;5072423;28;1898;-38
2022/07/26 08:00:06;;;;;;;;;;;;;;;28.46;36.14;100357.56;5057289;28;1000;-38
2022/07/26 08:02:31;;;;;;;;;;;;;;;28.34;37.08;100357.28;5067895;28;1140;-39
2022/07/26 08:04:57;;;;;;;;;;;;;;;28.40;37.11;100361.03;5069762;28;1338;-38
2022/07/26 08:07:22;;;;;;;;;;;;;;;28.44;36.46;100362.34;5070220;28;1051;-38
2022/07/26 08:09:47;;;;;;;;;;;;;;;28.53;36.06;100355.69;5066964;28;1141;-38
2022/07/26 08:12:13;;;;;;;;;;;;;;;28.52;35.97;100355.91;5066664;28;915;-37
2022/07/26 08:14:38;;;;;;;;;;;;;;;28.54;35.58;100351.97;5064829;28;1283;-37
2022/07/26 08:17:03;;;;;;;;;;;;;;;28.58;35.39;100350.50;5069951;28;1981;-37
2022/07/26 08:19:29;;;;;;;;;;;;;;;28.62;35.31;100347.41;5069364;28;981;-37
2022/07/26 08:21:54;;;;;;;;;;;;;;;28.72;35.80;100351.41;5071696;28;1036;-37
2022/07/26 08:24:19;;;;;;;;;;;;;;;29.23;35.02;100347.56;5072554;28;1171;-39
2022/07/26 08:26:45;;;;;;;;;;;;;;;27.74;37.81;100339.66;5064831;28;1115;-38
2022/07/26 08:29:10;;;;;;;;;;;;;;;25.69;36.88;100334.84;5069588;28;977;-38
2022/07/26 08:31:35;;;;;;;;;;;;;;;24.12;42.57;100337.41;5063519;28;1413;-38
2022/07/26 08:34:01;;;;;;;;;;;;;;;23.47;44.63;100335.50;5069255;28;978;-38
2022/07/26 08:36:26;;;;;;;;;;;;;;;23.15;45.83;100331.78;5075594;28;1965;-38
2022/07/26 08:38:51;;;;;;;;;;;;;;;23.02;46.38;100337.63;5069934;28;1024;-38
2022/07/26 08:41:17;;;;;;;;;;;;;;;22.84;47.08;100328.72;5064075;28;862;-38
2022/07/26 08:43:42;;;;;;;;;;;;;;;23.87;45.32;100321.34;5074571;28;1167;-37
2022/07/26 08:46:07;;;;;;;;;;;;;;;25.60;40.76;100334.03;5068364;28;1285;-37
2022/07/26 08:48:33;;;;;;;;;;;;;;;23.90;43.56;100331.75;5068312;28;1298;-38
2022/07/26 08:50:58;;;;;;;;;;;;;;;22.60;44.96;100329.47;5062935;28;965;-38
2022/07/26 08:53:23;;;;;;;;;;;;;;;22.08;46.78;100331.25;5051549;28;927;-38
2022/07/26 08:55:48;;;;;;;;;;;;;;;21.99;47.32;100330.34;5071081;28;1910;-38
2022/07/26 08:58:14;;;;;;;;;;;;;;;22.97;46.54;100312.13;5063504;28;1231;-37
2022/07/26 09:00:42;;;;;;;;;;;;;;;25.04;40.99;100321.72;5073627;28;1139;-37
2022/07/26 09:03:08;;;;;;;;;;;;;;;22.97;45.96;100317.50;5069128;28;1072;-37
2022/07/26 09:05:34;;;;;;;;;;;;;;;22.10;47.93;100321.22;5045278;28;1096;-37
2022/07/26 09:08:00;;;;;;;;;;;;;;;23.55;45.46;100322.09;5062427;28;973;-37
2022/07/26 09:10:25;;;;;;;;;;;;;;;24.70;43.48;100310.28;5066695;28;1188;-37
2022/07/26 09:12:54;;;;;;;;;;;;;;;22.63;47.38;100315.75;5069500;28;1066;-37
2022/07/26 09:15:20;;;;;;;;;;;;;;;22.04;48.74;100316.50;5070346;28;1906;-37
2022/07/26 09:17:50;;;;;;;;;;;;;;;23.24;47.03;100309.28;5062674;28;990;-37
2022/07/26 09:20:16;;;;;;;;;;;;;;;24.64;44.35;100311.00;5073215;28;993;-37
2022/07/26 09:22:57;;;;;;;;;;;;;;;22.68;47.68;100310.75;5069220;28;938;-37
2022/07/26 09:25:22;;;;;;;;;;;;;;;21.99;49.06;100312.44;5075138;28;1264;-38
2022/07/26 09:27:48;;;;;;;;;;;;;;;23.82;45.66;100305.75;5073270;28;965;-38
2022/07/26 09:30:13;;;;;;;;;;;;;;;24.09;45.24;100309.88;5062324;28;969;-38
2022/07/26 09:32:38;;;;;;;;;;;;;;;22.51;48.07;100307.13;5066252;28;953;-37
2022/07/26 09:35:11;;;;;;;;;;;;;;;22.23;51.89;100310.91;5051824;28;1067;-38
2022/07/26 09:37:37;;;;;;;;;;;;;;;24.45;43.82;100307.75;5071180;28;1906;-38
2022/07/26 09:40:04;;;;;;;;;;;;;;;22.98;47.61;100305.78;5073225;28;1044;-37
2022/07/26 09:42:29;;;;;;;;;;;;;;;22.04;49.41;100308.47;5069091;28;986;-37
2022/07/26 09:44:54;;;;;;;;;;;;;;;22.40;52.97;100305.59;5057348;28;937;-37
2022/07/26 09:47:20;;;;;;;;;;;;;;;24.60;44.13;100312.38;5065790;28;1083;-37
2022/07/26 09:49:45;;;;;;;;;;;;;;;23.07;48.55;100295.06;5046047;28;1060;-37
2022/07/26 09:52:20;;;;;;;;;;;;;;;22.42;50.21;100298.22;5068178;28;954;-37
2022/07/26 09:54:47;;;;;;;;;;;;;;;24.88;44.25;100296.56;5065968;28;1105;-36
2022/07/26 09:57:16;;;;;;;;;;;;;;;26.03;40.44;100306.50;5056812;28;1887;-38
2022/07/26 09:59:41;;;;;;;;;;;;;;;26.43;38.77;100299.97;5057677;28;1001;-37
2022/07/26 10:02:06;;;;;;;;;;;;;;;26.90;38.98;100300.50;5067097;28;1036;-37
2022/07/26 10:04:32;;;;;;;;;;;;;;;27.26;38.28;100290.66;5068804;28;1192;-39
2022/07/26 10:06:57;;;;;;;;;;;;;;;27.32;38.31;100302.53;5064079;28;1025;-38
2022/07/26 10:09:22;;;;;;;;;;;;;;;27.49;37.83;100289.56;5070480;28;1112;-39
2022/07/26 10:11:55;;;;;;;;;;;;;;;27.22;36.87;100288.53;5047063;28;985;-39
2022/07/26 10:14:59;;;;;;;;;;;;;;;27.45;36.96;100290.16;5050820;28;1045;-39
2022/07/26 10:17:27;;;;;;;;;;;;;;;27.66;37.76;100274.94;4977509;28;1918;-39
2022/07/26 10:19:56;;;;;;;;;;;;;;;27.91;37.26;100277.19;4975764;28;1022;-39
2022/07/26 10:22:31;;;;;;;;;;;;;;;28.06;37.26;100280.56;5021694;28;1138;-38
2022/07/26 10:24:57;;;;;;;;;;;;;;;28.13;37.36;100290.59;5068600;28;1035;-38
2022/07/26 10:27:35;;;;;;;;;;;;;;;28.22;37.15;100276.69;5074283;28;922;-38
2022/07/26 10:30:30;;;;;;;;;;;;;;;28.21;36.72;100268.78;5069222;28;821;-38
2022/07/26 10:32:55;;;;;;;;;;;;;;;28.28;36.87;100269.63;5050504;28;1321;-38
2022/07/26 10:35:32;;;;;;;;;;;;;;;28.29;37.18;100262.38;5076400;28;1961;-38
2022/07/26 10:38:02;;;;;;;;;;;;;;;28.11;37.17;100261.06;5065405;28;938;-37
2022/07/26 10:40:30;;;;;;;;;;;;;;;28.17;36.21;100260.25;5070422;28;1123;-38
2022/07/26 10:43:11;;;;;;;;;;;;;;;28.28;36.35;100271.53;5071772;28;1124;-38
2022/07/26 10:45:36;;;;;;;;;;;;;;;28.23;36.92;100266.69;5071935;28;1045;-38
2022/07/26 10:48:15;;;;;;;;;;;;;;;28.27;37.15;100267.13;5065671;28;1214;-38
2022/07/26 10:50:40;;;;;;;;;;;;;;;28.26;36.53;100260.88;5070673;28;1104;-36
2022/07/26 10:53:06;;;;;;;;;;;;;;;28.19;36.10;100262.75;5050954;28;1033;-36
2022/07/26 10:55:31;;;;;;;;;;;;;;;28.39;36.39;100260.16;5072153;28;1957;-36
2022/07/26 10:57:57;;;;;;;;;;;;;;;28.38;36.60;100268.47;5057038;28;1198;-36
2022/07/26 11:00:23;;;;;;;;;;;;;;;28.34;36.01;100263.44;5058602;28;895;-37
2022/07/26 11:02:51;;;;;;;;;;;;;;;28.48;35.81;100250.78;5067693;28;996;-35
2022/07/26 11:05:17;;;;;;;;;;;;;;;28.77;35.38;100247.09;5070662;28;1235;-37
2022/07/26 11:07:52;;;;;;;;;;;;;;;28.75;35.73;100257.28;5067679;28;1215;-37
2022/07/26 11:10:21;;;;;;;;;;;;;;;28.85;35.69;100253.16;5073173;28;1249;-37
2022/07/26 11:12:47;;;;;;;;;;;;;;;28.68;35.96;100255.41;5067034;28;1117;-36
2022/07/26 11:15:13;;;;;;;;;;;;;;;28.61;36.02;100246.47;5066441;28;985;-35
2022/07/26 11:17:38;;;;;;;;;;;;;;;28.64;35.89;100237.09;5063504;28;1992;-35
2022/07/26 11:20:04;;;;;;;;;;;;;;;28.44;36.26;100229.78;5060157;28;973;-36
2022/07/26 11:22:33;;;;;;;;;;;;;;;28.71;36.07;100237.94;5072463;28;1183;-36
2022/07/26 11:24:58;;;;;;;;;;;;;;;28.73;35.69;100233.13;5068721;28;938;-37
2022/07/26 11:27:23;;;;;;;;;;;;;;;28.28;34.53;100229.06;5069130;28;989;-36
2022/07/26 11:29:49;;;;;;;;;;;;;;;28.58;34.89;100222.50;5066477;28;1025;-36
2022/07/26 11:32:17;;;;;;;;;;;;;;;28.82;35.04;100225.66;5070539;28;954;-37
2022/07/26 11:34:44;;;;;;;;;;;;;;;28.85;34.53;100225.22;5069039;28;1044;-37
2022/07/26 11:37:09;;;;;;;;;;;;;;;28.72;34.41;100210.66;5074922;28;1902;-37
2022/07/26 11:39:35;;;;;;;;;;;;;;;28.49;34.81;100219.16;5071273;28;1005;-37
2022/07/26 11:42:01;;;;;;;;;;;;;;;28.75;35.00;100216.69;5068348;28;1068;-36
2022/07/26 11:44:26;;;;;;;;;;;;;;;28.77;34.96;100211.91;5069101;28;1004;-34
2022/07/26 11:46:52;;;;;;;;;;;;;;;28.96;34.21;100215.66;5073497;28;1104;-34
2022/07/26 11:49:21;;;;;;;;;;;;;;;29.01;34.12;100217.78;5065101;28;1002;-37
2022/07/26 11:51:53;;;;;;;;;;;;;;;29.05;34.04;100210.88;5064529;28;1191;-35
2022/07/26 11:54:19;;;;;;;;;;;;;;;28.95;34.07;100208.56;5062427;28;849;-36
2022/07/26 11:57:05;;;;;;;;;;;;;;;29.00;33.79;100210.69;5071828;28;1897;-36
2022/07/26 11:59:31;;;;;;;;;;;;;;;28.84;33.84;100207.34;5068736;28;1209;-38
2022/07/26 12:01:57;;;;;;;;;;;;;;;29.06;33.10;100202.56;5067858;28;1027;-37
2022/07/26 12:04:24;;;;;;;;;;;;;;;28.91;33.40;100205.44;5073608;28;1032;-37
2022/07/26 12:06:50;;;;;;;;;;;;;;;28.78;33.87;100200.88;5068911;28;986;-37
2022/07/26 12:09:34;;;;;;;;;;;;;;;28.95;33.66;100195.03;5066045;28;1225;-36
2022/07/26 12:12:04;;;;;;;;;;;;;;;28.92;33.59;100201.72;5067257;28;950;-36
2022/07/26 12:14:30;;;;;;;;;;;;;;;28.91;33.33;100199.22;5053388;28;965;-37
2022/07/26 12:16:55;;;;;;;;;;;;;;;28.91;33.17;100199.22;5074633;28;1909;-36
2022/07/26 12:19:23;;;;;;;;;;;;;;;28.92;33.42;100192.75;5070159;28;1127;-36
2022/07/26 12:21:49;;;;;;;;;;;;;;;28.93;33.42;100197.09;5069051;28;978;-35
2022/07/26 12:24:33;;;;;;;;;;;;;;;28.95;32.97;100193.16;5062546;28;1112;-37
2022/07/26 12:27:19;;;;;;;;;;;;;;;28.82;33.55;100194.00;5069257;28;1038;-36
2022/07/26 12:29:48;;;;;;;;;;;;;;;29.02;33.24;100189.66;5058717;28;1940;-36
2022/07/26 12:32:14;;;;;;;;;;;;;;;29.02;32.58;100182.38;5067248;28;929;-37
2022/07/26 12:34:40;;;;;;;;;;;;;;;28.98;32.88;100185.72;5071973;28;1036;-35
2022/07/26 12:37:05;;;;;;;;;;;;;;;29.04;32.58;100176.75;5067219;28;1976;-37
2022/07/26 12:39:31;;;;;;;;;;;;;;;29.06;32.71;100183.59;5071777;28;1097;-36
2022/07/26 12:41:56;;;;;;;;;;;;;;;29.02;32.88;100185.06;5057447;28;1107;-37
2022/07/26 12:44:22;;;;;;;;;;;;;;;28.99;32.87;100176.53;5071480;28;1176;-37
2022/07/26 12:46:47;;;;;;;;;;;;;;;29.05;32.38;100172.97;5064107;28;1041;-36
2022/07/26 12:49:12;;;;;;;;;;;;;;;29.09;32.12;100166.91;5060101;28;1089;-36